Terminal Aerodrome Forecast
Issued by NWS Birmingham, AL

Home | Current Version | Previous Version | Text Only | Print | Product List | Glossary On
Versions: 1 2 3 4 5 6 7 8 9 10 11 12 13 14 15 16 17 18
000
FTUS44 KBMX 030500
TAFBHM
TAF
KBHM 030531Z 0306/0406 VRB04KT P6SM BKN150
     FM031400 VRB05KT P6SM BKN025
     FM031700 VRB05KT P6SM VCTS BKN050CB
     FM040000 VRB03KT P6SM BKN150=

USA.gov is the U.S. government's official web portal to all federal, state and local government web resources and services.